Pagrindinis puslapis
METAR-TAF:

METAR-TAF

Oro uostai :

Rodas, Graikija

platuma: 36-24N, ilguma: 028-05E, Aukštis: 4 m

Dabartinis oras

Ataskaita buvo paskelbta 32 minutes, ne 14:20 UTC
Vėjas 14 kt iš Vakarų/Pietvakarių
Temperatūra 23°C
Drėgmė 57%
Slėgis 1009 hPa
Matomumas 10 km arba daugiau
nėra debesų žemiau 1500 m ir nėra kamuolinių lietaus debesų

METAR: LGRP 121420Z 24014KT CAVOK 23/14 Q1009 NOSIG

Laikas: 17:52 (14:52 UTC)

Prognozė

Ataskaita buvo paskelbta 3 valandos ir 52 minutes, ne 11:00 UTC
Prognozė galioja nuo 12 metu 12 UTC su 13 metu 12 UTC
Vėjas 15 kt iš Vakarų/Pietvakarių
Matomumas 10 km arba daugiau
Mažai debesys ne aukštis 2000 ft
Tapsmas
nuo 12 metu 22 UTC su 12 metu 24 UTC
Vėjas 5 kt nuo kintamojo kryptimis

TAF: LGRP 121100Z 1212/1312 25015KT 9999 FEW020 BECMG 1222/1224 VRB05KT

Orai ataskaitas ir orų prognozės (METAR, TAF).

turimą stotys yra geltonos ir raudonos taškus žemėlapyje.

Perkelti pele per norėdami pamatyti stoties vardą.

Tada spustelėkite, norėdami matyti oro stebėjimo ir prognozės.

Norėdami pakeisti žemėlapį: spustelėkite ant žalios mygtukų su juodo kryžiaus žemyn,; žalią mygtuką su brūkšneliu, jei norite nutolinti; arba žalių rodyklių gretimoms žemėlapius.


METAR-TAF: